createdAt,value
2022-11-09T00:00:06.090Z,73.77
2022-11-09T00:00:16.351Z,73.67
2022-11-09T00:00:26.638Z,73.77
2022-11-09T00:00:36.878Z,73.77
2022-11-09T00:00:47.144Z,73.77
2022-11-09T00:00:57.405Z,73.67
2022-11-09T00:01:07.664Z,73.67
2022-11-09T00:01:17.929Z,73.67
2022-11-09T00:01:28.196Z,73.67
2022-11-09T00:01:38.457Z,73.67
2022-11-09T00:01:48.721Z,73.67
2022-11-09T00:01:58.982Z,73.57
2022-11-09T00:02:09.260Z,73.57
2022-11-09T00:02:19.522Z,73.57
2022-11-09T00:02:29.787Z,73.57
2022-11-09T00:02:43.829Z,73.57
2022-11-09T00:02:50.443Z,73.57
2022-11-09T00:03:00.705Z,73.57
2022-11-09T00:03:10.969Z,73.57
2022-11-09T00:03:21.793Z,73.47
2022-11-09T00:03:31.587Z,73.47
2022-11-09T00:03:41.850Z,73.57
2022-11-09T00:03:52.115Z,73.57
2022-11-09T00:04:02.406Z,73.57
2022-11-09T00:04:12.637Z,73.47
2022-11-09T00:04:22.919Z,73.36
2022-11-09T00:04:33.187Z,73.36
2022-11-09T00:04:43.444Z,73.36
2022-11-09T00:04:53.708Z,73.36
2022-11-09T00:05:03.970Z,73.47
2022-11-09T00:05:14.234Z,73.36
2022-11-09T00:05:24.499Z,73.36
2022-11-09T00:05:34.780Z,73.36
2022-11-09T00:05:45.101Z,73.36
2022-11-09T00:05:55.314Z,73.36
2022-11-09T00:06:05.577Z,73.36
2022-11-09T00:06:15.841Z,73.36
2022-11-09T00:06:26.292Z,73.36
2022-11-09T00:06:36.467Z,73.36
2022-11-09T00:06:46.740Z,73.36
2022-11-09T00:06:57.080Z,73.26
2022-11-09T00:07:07.430Z,73.26
2022-11-09T00:07:17.757Z,73.26
2022-11-09T00:07:28.002Z,73.26
2022-11-09T00:07:38.270Z,73.26
2022-11-09T00:07:48.526Z,73.26
2022-11-09T00:07:58.788Z,73.26
2022-11-09T00:08:09.065Z,73.26
2022-11-09T00:08:19.327Z,73.26
2022-11-09T00:08:29.582Z,73.26
2022-11-09T00:08:39.846Z,73.26
2022-11-09T00:08:50.107Z,73.16
2022-11-09T00:09:06.827Z,73.16
2022-11-09T00:09:11.592Z,73.16
2022-11-09T00:09:21.093Z,73.16
2022-11-09T00:09:31.428Z,73.06
2022-11-09T00:09:41.769Z,73.06
2022-11-09T00:09:52.190Z,73.06
2022-11-09T00:10:02.337Z,73.16
2022-11-09T00:10:12.658Z,73.16
2022-11-09T00:10:22.931Z,73.16
2022-11-09T00:10:33.197Z,73.16
2022-11-09T00:10:43.459Z,73.16
2022-11-09T00:10:53.817Z,73.16
2022-11-09T00:11:04.055Z,73.16
2022-11-09T00:11:14.316Z,73.06
2022-11-09T00:11:24.580Z,73.06
2022-11-09T00:11:34.853Z,73.06
2022-11-09T00:11:45.101Z,73.06
2022-11-09T00:11:55.363Z,73.06
2022-11-09T00:12:05.627Z,73.06
2022-11-09T00:12:15.889Z,73.06
2022-11-09T00:12:26.153Z,73.06
2022-11-09T00:12:36.424Z,73.06
2022-11-09T00:12:46.707Z,72.96
2022-11-09T00:12:56.971Z,72.96
2022-11-09T00:13:07.240Z,72.96
2022-11-09T00:13:17.995Z,72.96
2022-11-09T00:13:27.826Z,72.96
2022-11-09T00:13:38.082Z,72.96
2022-11-09T00:13:48.344Z,72.96
2022-11-09T00:13:58.614Z,72.96
2022-11-09T00:14:08.880Z,72.96
2022-11-09T00:14:19.146Z,72.96
2022-11-09T00:14:29.408Z,72.96
2022-11-09T00:14:39.683Z,72.86
2022-11-09T00:14:49.944Z,72.86
2022-11-09T00:15:00.217Z,72.86
2022-11-09T00:15:10.477Z,72.86
2022-11-09T00:15:20.759Z,72.86
2022-11-09T00:15:31.037Z,72.86
2022-11-09T00:15:41.295Z,72.75
2022-11-09T00:15:51.556Z,72.75
2022-11-09T00:16:01.816Z,72.75
2022-11-09T00:16:12.081Z,72.75
2022-11-09T00:16:22.343Z,72.75
2022-11-09T00:16:32.615Z,72.75
2022-11-09T00:16:42.872Z,72.75
2022-11-09T00:16:53.136Z,72.75
2022-11-09T00:17:03.414Z,72.75
2022-11-09T00:17:13.693Z,72.75
2022-11-09T00:17:23.945Z,72.75
2022-11-09T00:17:34.212Z,72.75
2022-11-09T00:17:44.473Z,72.75
2022-11-09T00:17:54.737Z,72.75
2022-11-09T00:18:05.003Z,72.75
2022-11-09T00:18:15.265Z,72.75
2022-11-09T00:18:25.527Z,72.75
2022-11-09T00:18:35.795Z,72.75
2022-11-09T00:18:46.054Z,72.75
2022-11-09T00:18:56.332Z,72.75
2022-11-09T00:19:06.609Z,72.65
2022-11-09T00:19:16.864Z,72.65
2022-11-09T00:19:27.138Z,72.65
2022-11-09T00:19:37.403Z,72.75
2022-11-09T00:19:47.666Z,72.75
2022-11-09T00:19:57.939Z,72.75
2022-11-09T00:20:08.204Z,72.65
2022-11-09T00:20:18.552Z,72.65
2022-11-09T00:20:28.813Z,72.65
2022-11-09T00:20:42.096Z,72.65
2022-11-09T00:20:50.284Z,72.75
2022-11-09T00:20:59.684Z,72.75
2022-11-09T00:21:09.988Z,72.65
2022-11-09T00:21:20.228Z,72.65
2022-11-09T00:21:30.492Z,72.65
2022-11-09T00:21:40.754Z,72.65
2022-11-09T00:21:51.019Z,72.65
2022-11-09T00:22:01.295Z,72.65
2022-11-09T00:22:11.553Z,72.65
2022-11-09T00:22:21.817Z,72.65
2022-11-09T00:22:32.083Z,72.75
2022-11-09T00:22:42.346Z,72.75
2022-11-09T00:22:52.620Z,72.75
2022-11-09T00:23:02.886Z,72.75
2022-11-09T00:23:13.147Z,72.75
2022-11-09T00:23:23.636Z,72.75
2022-11-09T00:23:33.760Z,72.65
2022-11-09T00:23:44.020Z,72.65
2022-11-09T00:23:54.299Z,72.65
2022-11-09T00:24:04.578Z,72.65
2022-11-09T00:24:14.846Z,72.65
2022-11-09T00:24:25.110Z,72.65
2022-11-09T00:24:35.373Z,72.65
2022-11-09T00:24:45.659Z,72.75
2022-11-09T00:24:55.933Z,72.75
2022-11-09T00:25:06.205Z,72.75
2022-11-09T00:25:16.455Z,72.65
2022-11-09T00:25:26.721Z,72.65
2022-11-09T00:25:36.984Z,72.65
2022-11-09T00:25:47.247Z,72.55
2022-11-09T00:25:57.534Z,72.55
2022-11-09T00:26:07.810Z,72.55
2022-11-09T00:26:18.049Z,72.45
2022-11-09T00:26:28.313Z,72.45
2022-11-09T00:26:38.574Z,72.45
2022-11-09T00:26:48.841Z,72.55
2022-11-09T00:26:59.105Z,72.65
2022-11-09T00:27:11.866Z,72.65
2022-11-09T00:27:19.651Z,72.65
2022-11-09T00:27:29.917Z,72.55
2022-11-09T00:27:40.182Z,72.55
2022-11-09T00:27:50.443Z,72.55
2022-11-09T00:28:00.722Z,72.65
2022-11-09T00:28:10.991Z,72.55
2022-11-09T00:28:21.247Z,72.55
2022-11-09T00:28:31.515Z,72.55
2022-11-09T00:28:41.774Z,72.55
2022-11-09T00:28:52.057Z,72.45
2022-11-09T00:29:02.309Z,72.45
2022-11-09T00:29:12.574Z,72.45
2022-11-09T00:29:22.851Z,72.45
2022-11-09T00:29:33.102Z,72.45
2022-11-09T00:29:43.380Z,72.45
2022-11-09T00:29:53.643Z,72.45
2022-11-09T00:30:03.904Z,72.45
2022-11-09T00:30:14.342Z,72.45
2022-11-09T00:30:24.585Z,72.45
2022-11-09T00:30:34.869Z,72.45
2022-11-09T00:30:45.189Z,72.45
2022-11-09T00:30:55.401Z,72.45
2022-11-09T00:31:05.659Z,72.34
2022-11-09T00:31:15.928Z,72.34
2022-11-09T00:31:26.207Z,72.34
2022-11-09T00:31:36.473Z,72.34
2022-11-09T00:31:46.719Z,72.34
2022-11-09T00:31:56.985Z,72.45
2022-11-09T00:32:07.244Z,72.45
2022-11-09T00:32:17.510Z,72.45
2022-11-09T00:32:28.203Z,72.55
2022-11-09T00:32:38.012Z,72.55
2022-11-09T00:32:48.274Z,72.55
2022-11-09T00:32:58.567Z,72.55
2022-11-09T00:33:08.839Z,72.55
2022-11-09T00:33:19.443Z,72.55
2022-11-09T00:33:29.401Z,72.55
2022-11-09T00:33:39.663Z,72.45
2022-11-09T00:33:49.925Z,72.45
2022-11-09T00:34:00.191Z,72.45
2022-11-09T00:34:10.450Z,72.55
2022-11-09T00:34:20.730Z,72.45
2022-11-09T00:34:30.992Z,72.45
2022-11-09T00:34:41.307Z,72.45
2022-11-09T00:34:51.569Z,72.45
2022-11-09T00:35:01.849Z,72.45
2022-11-09T00:35:12.096Z,72.45
2022-11-09T00:35:22.365Z,72.55
2022-11-09T00:35:32.643Z,72.55
2022-11-09T00:35:42.891Z,72.65
2022-11-09T00:35:53.151Z,72.65
2022-11-09T00:36:03.428Z,72.65
2022-11-09T00:36:13.688Z,72.65
2022-11-09T00:36:23.946Z,72.75
2022-11-09T00:36:34.214Z,72.75
2022-11-09T00:36:44.492Z,72.86
2022-11-09T00:36:54.761Z,72.86
2022-11-09T00:37:04.999Z,72.86
2022-11-09T00:37:15.306Z,72.86
2022-11-09T00:37:25.626Z,72.75
2022-11-09T00:37:35.922Z,72.75
2022-11-09T00:37:46.340Z,72.75
2022-11-09T00:37:56.513Z,72.65
2022-11-09T00:38:06.950Z,72.75
2022-11-09T00:38:17.223Z,72.65
2022-11-09T00:38:27.488Z,72.65
2022-11-09T00:38:37.753Z,72.65
2022-11-09T00:38:48.020Z,72.75
2022-11-09T00:38:58.280Z,72.86
2022-11-09T00:39:08.555Z,72.86
2022-11-09T00:39:18.817Z,72.75
2022-11-09T00:39:29.098Z,72.75
2022-11-09T00:39:39.360Z,72.75
2022-11-09T00:39:49.649Z,72.86
2022-11-09T00:39:59.918Z,72.86
2022-11-09T00:40:10.191Z,72.86
2022-11-09T00:40:20.456Z,72.86
2022-11-09T00:40:30.720Z,72.86
2022-11-09T00:40:40.993Z,72.86
2022-11-09T00:40:51.273Z,72.75
2022-11-09T00:41:01.526Z,72.75
2022-11-09T00:41:11.781Z,72.75
2022-11-09T00:41:22.045Z,72.75
2022-11-09T00:41:32.331Z,72.75
2022-11-09T00:41:42.587Z,72.65
2022-11-09T00:41:52.857Z,72.65
2022-11-09T00:42:03.111Z,72.75
2022-11-09T00:42:13.377Z,72.75
2022-11-09T00:42:23.636Z,72.75
2022-11-09T00:42:33.899Z,72.75
2022-11-09T00:42:44.164Z,72.75
2022-11-09T00:42:54.446Z,72.75
2022-11-09T00:43:04.723Z,72.86
2022-11-09T00:43:14.967Z,72.86
2022-11-09T00:43:25.233Z,72.86
2022-11-09T00:43:35.502Z,72.86
2022-11-09T00:43:45.952Z,72.75
2022-11-09T00:43:56.289Z,72.86
2022-11-09T00:44:06.587Z,72.96
2022-11-09T00:44:16.997Z,72.96
2022-11-09T00:44:27.259Z,72.96
2022-11-09T00:44:37.540Z,72.86
2022-11-09T00:44:47.807Z,72.86
2022-11-09T00:44:58.078Z,72.86
2022-11-09T00:45:08.340Z,72.75
2022-11-09T00:45:18.599Z,72.75
2022-11-09T00:45:28.876Z,72.75
2022-11-09T00:45:39.148Z,72.75
2022-11-09T00:45:49.392Z,72.86
2022-11-09T00:45:59.656Z,72.86
2022-11-09T00:46:10.043Z,72.86
2022-11-09T00:46:20.256Z,72.86
2022-11-09T00:46:30.637Z,72.86
2022-11-09T00:46:40.985Z,72.86
2022-11-09T00:46:51.250Z,72.86
2022-11-09T00:47:01.512Z,72.86
2022-11-09T00:47:11.777Z,72.75
2022-11-09T00:47:22.041Z,72.75
2022-11-09T00:47:32.303Z,72.75
2022-11-09T00:47:42.567Z,72.86
2022-11-09T00:47:52.826Z,72.86
2022-11-09T00:48:03.088Z,72.86
2022-11-09T00:48:13.353Z,72.75
2022-11-09T00:48:23.619Z,72.65
2022-11-09T00:48:33.879Z,72.65
2022-11-09T00:48:44.150Z,72.75
2022-11-09T00:48:54.457Z,72.86
2022-11-09T00:49:04.689Z,72.86
2022-11-09T00:49:14.980Z,72.96
2022-11-09T00:49:25.239Z,72.86
2022-11-09T00:49:35.501Z,72.86
2022-11-09T00:49:45.765Z,72.86
2022-11-09T00:49:56.027Z,72.86
2022-11-09T00:50:06.300Z,72.86
2022-11-09T00:50:16.581Z,72.86
2022-11-09T00:50:26.830Z,72.86
2022-11-09T00:50:37.092Z,72.75
2022-11-09T00:50:47.356Z,72.75
2022-11-09T00:50:57.627Z,72.75
2022-11-09T00:51:07.900Z,72.75
2022-11-09T00:51:18.160Z,72.75
2022-11-09T00:51:28.429Z,72.75
2022-11-09T00:51:38.696Z,72.75
2022-11-09T00:51:48.943Z,72.75
2022-11-09T00:51:59.207Z,72.75
2022-11-09T00:52:09.475Z,72.75
2022-11-09T00:52:19.733Z,72.75
2022-11-09T00:52:29.993Z,72.75
2022-11-09T00:52:40.287Z,72.75
2022-11-09T00:52:50.556Z,72.75
2022-11-09T00:53:00.818Z,72.75
2022-11-09T00:53:11.078Z,72.65
2022-11-09T00:53:21.741Z,72.65
2022-11-09T00:53:31.715Z,72.65
2022-11-09T00:53:41.969Z,72.65
2022-11-09T00:53:52.242Z,72.65
2022-11-09T00:54:02.496Z,72.65
2022-11-09T00:54:12.758Z,72.55
2022-11-09T00:54:23.042Z,72.55
2022-11-09T00:54:33.299Z,72.55
2022-11-09T00:54:43.562Z,72.55
2022-11-09T00:54:53.826Z,72.55
2022-11-09T00:55:04.091Z,72.65
2022-11-09T00:55:14.351Z,72.65
2022-11-09T00:55:24.614Z,72.65
2022-11-09T00:55:34.877Z,72.65
2022-11-09T00:55:45.143Z,72.65
2022-11-09T00:55:55.408Z,72.65
2022-11-09T00:56:05.679Z,72.65
2022-11-09T00:56:15.946Z,72.55
2022-11-09T00:56:26.207Z,72.55
2022-11-09T00:56:36.481Z,72.45
2022-11-09T00:56:46.754Z,72.45
2022-11-09T00:56:57.031Z,72.55
2022-11-09T00:57:07.281Z,72.65
2022-11-09T00:57:17.557Z,72.65
2022-11-09T00:57:27.811Z,72.65
2022-11-09T00:57:38.062Z,72.65
2022-11-09T00:57:48.326Z,72.65
2022-11-09T00:57:58.590Z,72.65
2022-11-09T00:58:08.862Z,72.55
2022-11-09T00:58:19.128Z,72.55
2022-11-09T00:58:29.384Z,72.55
2022-11-09T00:58:39.654Z,72.65
2022-11-09T00:58:49.918Z,72.65
2022-11-09T00:59:00.205Z,72.65
2022-11-09T00:59:10.447Z,72.75
2022-11-09T00:59:20.725Z,72.65
2022-11-09T00:59:30.991Z,72.65
2022-11-09T00:59:41.258Z,72.65
2022-11-09T00:59:51.532Z,72.65
2022-11-09T01:00:01.817Z,72.65
2022-11-09T01:00:12.062Z,72.75
2022-11-09T01:00:22.320Z,72.75
2022-11-09T01:00:32.584Z,72.75
2022-11-09T01:00:42.953Z,72.75
2022-11-09T01:00:53.257Z,72.75
2022-11-09T01:01:03.571Z,72.75
2022-11-09T01:01:13.984Z,72.86
2022-11-09T01:01:24.255Z,72.86
2022-11-09T01:01:34.384Z,72.75
2022-11-09T01:01:44.667Z,72.75
2022-11-09T01:01:54.927Z,72.75
2022-11-09T01:02:05.186Z,72.75
2022-11-09T01:02:15.467Z,72.75
2022-11-09T01:02:25.709Z,72.75
2022-11-09T01:02:35.986Z,72.65
2022-11-09T01:02:46.254Z,72.65
2022-11-09T01:02:59.639Z,72.75
2022-11-09T01:03:06.880Z,72.86
2022-11-09T01:03:17.480Z,72.86
2022-11-09T01:03:27.462Z,72.86
2022-11-09T01:03:37.726Z,72.75
2022-11-09T01:03:47.983Z,72.75
2022-11-09T01:03:58.251Z,72.75
2022-11-09T01:04:08.518Z,72.86
2022-11-09T01:04:18.809Z,72.86
2022-11-09T01:04:29.078Z,72.75
2022-11-09T01:04:39.343Z,72.75
2022-11-09T01:04:49.605Z,72.86
2022-11-09T01:04:59.877Z,72.86
2022-11-09T01:05:10.122Z,72.86
2022-11-09T01:05:20.394Z,72.86
2022-11-09T01:05:30.651Z,72.86
2022-11-09T01:05:40.906Z,72.75
2022-11-09T01:05:51.185Z,72.75
2022-11-09T01:06:01.444Z,72.75
2022-11-09T01:06:11.705Z,72.86
2022-11-09T01:06:21.965Z,72.86
2022-11-09T01:06:34.053Z,72.86
2022-11-09T01:06:42.548Z,72.86
2022-11-09T01:06:52.860Z,72.86
2022-11-09T01:07:03.210Z,72.96
2022-11-09T01:07:13.590Z,72.96
2022-11-09T01:07:23.884Z,72.86
2022-11-09T01:07:34.155Z,72.86
2022-11-09T01:07:44.397Z,72.86
2022-11-09T01:07:54.673Z,72.86
2022-11-09T01:08:04.931Z,72.86
2022-11-09T01:08:15.211Z,72.86
2022-11-09T01:08:25.458Z,72.86
2022-11-09T01:08:35.727Z,72.86
2022-11-09T01:08:45.986Z,72.86
2022-11-09T01:08:56.248Z,72.86
2022-11-09T01:09:06.509Z,72.86
2022-11-09T01:09:16.768Z,72.86
2022-11-09T01:09:27.056Z,72.96
2022-11-09T01:09:37.310Z,72.96
2022-11-09T01:09:47.592Z,72.86
2022-11-09T01:09:57.847Z,72.96
2022-11-09T01:10:08.109Z,72.86
2022-11-09T01:10:18.385Z,72.86
2022-11-09T01:10:28.641Z,72.86
2022-11-09T01:10:38.897Z,72.75
2022-11-09T01:10:49.161Z,72.75
2022-11-09T01:10:59.422Z,72.75
2022-11-09T01:11:09.691Z,72.75
2022-11-09T01:11:19.957Z,72.75
2022-11-09T01:11:30.218Z,72.65
2022-11-09T01:11:40.522Z,72.65
2022-11-09T01:11:50.799Z,72.75
2022-11-09T01:12:01.053Z,72.75
2022-11-09T01:12:11.297Z,72.75
2022-11-09T01:12:21.559Z,72.75
2022-11-09T01:12:31.840Z,72.65
2022-11-09T01:12:42.097Z,72.65
2022-11-09T01:12:52.361Z,72.65
2022-11-09T01:13:02.620Z,72.75
2022-11-09T01:13:12.884Z,72.75
2022-11-09T01:13:23.156Z,72.75
2022-11-09T01:13:33.424Z,72.65
2022-11-09T01:13:43.683Z,72.65
2022-11-09T01:13:53.962Z,72.65
2022-11-09T01:14:04.222Z,72.65
2022-11-09T01:14:14.488Z,72.65
2022-11-09T01:14:24.778Z,72.65
2022-11-09T01:14:35.036Z,72.65
2022-11-09T01:14:45.295Z,72.65
2022-11-09T01:14:55.595Z,72.55
2022-11-09T01:15:05.829Z,72.55
2022-11-09T01:15:16.087Z,72.55
2022-11-09T01:15:26.348Z,72.65
2022-11-09T01:15:36.620Z,72.55
2022-11-09T01:15:46.893Z,72.65
2022-11-09T01:15:57.134Z,72.65
2022-11-09T01:16:07.407Z,72.55
2022-11-09T01:16:17.678Z,72.55
2022-11-09T01:16:27.981Z,72.55
2022-11-09T01:16:38.244Z,72.55
2022-11-09T01:16:48.510Z,72.65
2022-11-09T01:16:58.768Z,72.65
2022-11-09T01:17:09.031Z,72.55
2022-11-09T01:17:19.306Z,72.55
2022-11-09T01:17:29.571Z,72.55
2022-11-09T01:17:39.836Z,72.55
2022-11-09T01:17:50.110Z,72.55
2022-11-09T01:18:00.362Z,72.55
2022-11-09T01:18:10.623Z,72.55
2022-11-09T01:18:20.888Z,72.55
2022-11-09T01:18:31.168Z,72.55
2022-11-09T01:18:41.444Z,72.55
2022-11-09T01:18:51.694Z,72.55
2022-11-09T01:19:01.949Z,72.55
2022-11-09T01:19:12.215Z,72.55
2022-11-09T01:19:22.471Z,72.55
2022-11-09T01:19:32.758Z,72.55
2022-11-09T01:19:43.030Z,72.55
2022-11-09T01:19:53.279Z,72.55
2022-11-09T01:20:03.545Z,72.55
2022-11-09T01:20:13.805Z,72.55
2022-11-09T01:20:24.067Z,72.55
2022-11-09T01:20:34.330Z,72.55
2022-11-09T01:20:44.594Z,72.65
2022-11-09T01:20:54.857Z,72.65
2022-11-09T01:21:05.125Z,72.65
2022-11-09T01:21:15.385Z,72.65
2022-11-09T01:21:25.672Z,72.65
2022-11-09T01:21:35.925Z,72.65
2022-11-09T01:21:46.183Z,72.65
2022-11-09T01:21:56.468Z,72.65
2022-11-09T01:22:06.707Z,72.65
2022-11-09T01:22:16.972Z,72.65
2022-11-09T01:22:27.239Z,72.65
2022-11-09T01:22:37.499Z,72.65
2022-11-09T01:22:47.757Z,72.65
2022-11-09T01:22:58.028Z,72.65
2022-11-09T01:23:08.288Z,72.65
2022-11-09T01:23:18.761Z,72.65
2022-11-09T01:23:28.974Z,72.65
2022-11-09T01:23:39.293Z,72.65
2022-11-09T01:23:49.519Z,72.75
2022-11-09T01:23:59.789Z,72.75
2022-11-09T01:24:10.062Z,72.75
2022-11-09T01:24:20.318Z,72.65
2022-11-09T01:24:30.582Z,72.65
2022-11-09T01:24:40.858Z,72.55
2022-11-09T01:24:51.151Z,72.65
2022-11-09T01:25:01.408Z,72.65
2022-11-09T01:25:11.671Z,72.65
2022-11-09T01:25:21.926Z,72.75
2022-11-09T01:25:32.193Z,72.75
2022-11-09T01:25:42.489Z,72.65
2022-11-09T01:25:52.748Z,72.65
2022-11-09T01:26:03.010Z,72.55
2022-11-09T01:26:13.275Z,72.55
2022-11-09T01:26:23.553Z,72.65
2022-11-09T01:26:33.810Z,72.65
2022-11-09T01:26:44.069Z,72.55
2022-11-09T01:26:54.331Z,72.55
2022-11-09T01:27:04.589Z,72.55
2022-11-09T01:27:14.866Z,72.65
2022-11-09T01:27:25.124Z,72.65
2022-11-09T01:27:35.390Z,72.65
2022-11-09T01:27:45.667Z,72.75
2022-11-09T01:27:55.924Z,72.75
2022-11-09T01:28:06.180Z,72.75
2022-11-09T01:28:16.447Z,72.75
2022-11-09T01:28:26.712Z,72.75
2022-11-09T01:28:36.973Z,72.75
2022-11-09T01:28:47.243Z,72.75
2022-11-09T01:28:57.521Z,72.75
2022-11-09T01:29:07.791Z,72.75
2022-11-09T01:29:18.045Z,72.75
2022-11-09T01:29:28.316Z,72.75
2022-11-09T01:29:38.597Z,72.75
2022-11-09T01:29:48.884Z,72.75
2022-11-09T01:29:59.161Z,72.86
2022-11-09T01:30:09.408Z,72.86
2022-11-09T01:30:19.670Z,72.86
2022-11-09T01:30:29.936Z,72.86
2022-11-09T01:30:40.205Z,72.86
2022-11-09T01:30:50.489Z,72.96
2022-11-09T01:31:00.747Z,72.96
2022-11-09T01:31:10.998Z,72.96
2022-11-09T01:31:21.260Z,72.96
2022-11-09T01:31:31.520Z,72.96
2022-11-09T01:31:41.785Z,72.96
2022-11-09T01:31:52.054Z,72.86
2022-11-09T01:32:02.313Z,72.86
2022-11-09T01:32:12.574Z,72.86
2022-11-09T01:32:22.841Z,72.86
2022-11-09T01:32:33.088Z,72.86
2022-11-09T01:32:43.345Z,72.86
2022-11-09T01:32:53.628Z,72.86
2022-11-09T01:33:03.878Z,72.86
2022-11-09T01:33:14.140Z,72.86
2022-11-09T01:33:24.406Z,72.86
2022-11-09T01:33:34.687Z,72.86
2022-11-09T01:33:44.944Z,72.96
2022-11-09T01:33:55.221Z,72.96
2022-11-09T01:34:05.480Z,72.96
2022-11-09T01:34:15.743Z,72.86
2022-11-09T01:34:26.001Z,72.86
2022-11-09T01:34:36.289Z,72.86
2022-11-09T01:34:46.546Z,72.86
2022-11-09T01:34:56.806Z,72.75
2022-11-09T01:35:07.093Z,72.75
2022-11-09T01:35:17.335Z,72.75
2022-11-09T01:35:27.592Z,72.75
2022-11-09T01:35:37.853Z,72.75
2022-11-09T01:35:48.118Z,72.65
2022-11-09T01:35:58.380Z,72.75
2022-11-09T01:36:08.647Z,72.86
2022-11-09T01:36:18.910Z,72.86
2022-11-09T01:36:29.165Z,72.86
2022-11-09T01:36:39.435Z,72.75
2022-11-09T01:36:49.691Z,72.86
2022-11-09T01:37:00.023Z,72.86
2022-11-09T01:37:10.239Z,72.86
2022-11-09T01:37:20.503Z,72.86
2022-11-09T01:37:30.787Z,72.86
2022-11-09T01:37:41.043Z,72.86
2022-11-09T01:37:51.362Z,72.86
2022-11-09T01:38:01.581Z,72.86
2022-11-09T01:38:11.876Z,72.86
2022-11-09T01:38:22.114Z,72.86
2022-11-09T01:38:32.379Z,72.86
2022-11-09T01:38:42.661Z,72.86
2022-11-09T01:38:52.936Z,72.96
2022-11-09T01:39:03.203Z,72.86
2022-11-09T01:39:13.456Z,72.96
2022-11-09T01:39:23.724Z,72.96
2022-11-09T01:39:33.993Z,72.86
2022-11-09T01:39:44.260Z,72.96
2022-11-09T01:39:54.517Z,72.96
2022-11-09T01:40:04.785Z,72.96
2022-11-09T01:40:15.046Z,73.06
2022-11-09T01:40:25.305Z,72.96
2022-11-09T01:40:35.575Z,73.06
2022-11-09T01:40:45.828Z,73.06
2022-11-09T01:40:56.089Z,73.06
2022-11-09T01:41:06.352Z,73.06
2022-11-09T01:41:16.612Z,72.96
2022-11-09T01:41:26.881Z,72.96
2022-11-09T01:41:37.138Z,72.96
2022-11-09T01:41:47.406Z,72.96
2022-11-09T01:41:57.678Z,73.06
2022-11-09T01:42:07.938Z,73.06
2022-11-09T01:42:18.196Z,73.06
2022-11-09T01:42:28.461Z,73.06
2022-11-09T01:42:38.726Z,73.06
2022-11-09T01:42:48.997Z,73.16
2022-11-09T01:42:59.261Z,73.16
2022-11-09T01:43:09.516Z,73.16
2022-11-09T01:43:20.195Z,73.16
2022-11-09T01:43:30.164Z,73.16
2022-11-09T01:43:40.416Z,73.16
2022-11-09T01:43:50.679Z,73.26
2022-11-09T01:44:00.942Z,73.30
2022-11-09T01:44:11.218Z,73.30
2022-11-09T01:44:21.480Z,73.26
2022-11-09T01:44:31.742Z,73.26
2022-11-09T01:44:42.024Z,73.30
2022-11-09T01:44:52.291Z,73.26
2022-11-09T01:45:02.568Z,73.30
2022-11-09T01:45:12.824Z,73.26
2022-11-09T01:45:23.104Z,73.30
2022-11-09T01:45:33.345Z,73.30
2022-11-09T01:45:43.605Z,73.30
2022-11-09T01:45:53.940Z,73.30
2022-11-09T01:46:04.155Z,73.26
2022-11-09T01:46:14.465Z,73.16
2022-11-09T01:46:24.707Z,73.19
2022-11-09T01:46:34.954Z,73.16
2022-11-09T01:46:45.232Z,73.19
2022-11-09T01:46:55.558Z,73.26
2022-11-09T01:47:05.785Z,73.26
2022-11-09T01:47:16.037Z,73.19
2022-11-09T01:47:26.304Z,73.19
2022-11-09T01:47:36.569Z,73.30
2022-11-09T01:47:46.858Z,73.26
2022-11-09T01:47:57.107Z,73.26
2022-11-09T01:48:07.371Z,73.30
2022-11-09T01:48:17.647Z,73.30
2022-11-09T01:48:27.894Z,73.26
2022-11-09T01:48:38.161Z,73.26
2022-11-09T01:48:48.425Z,73.26
2022-11-09T01:48:58.692Z,73.30
2022-11-09T01:49:09.001Z,73.26
2022-11-09T01:49:19.255Z,73.26
2022-11-09T01:49:29.516Z,73.26
2022-11-09T01:49:39.797Z,73.30
2022-11-09T01:49:50.061Z,73.30
2022-11-09T01:50:00.430Z,73.30
2022-11-09T01:50:10.675Z,73.26
2022-11-09T01:50:20.917Z,73.26
2022-11-09T01:50:31.263Z,73.30
2022-11-09T01:50:41.487Z,73.40
2022-11-09T01:50:51.745Z,73.30
2022-11-09T01:51:02.006Z,73.30
2022-11-09T01:51:12.276Z,73.40
2022-11-09T01:51:22.540Z,73.40
2022-11-09T01:51:32.812Z,73.30
2022-11-09T01:51:43.074Z,73.26
2022-11-09T01:51:53.332Z,73.19
2022-11-09T01:52:03.625Z,73.16
2022-11-09T01:52:13.852Z,73.19
2022-11-09T01:52:24.126Z,73.19
2022-11-09T01:52:34.378Z,73.30
2022-11-09T01:52:44.639Z,73.30
2022-11-09T01:52:54.900Z,73.30
2022-11-09T01:53:05.164Z,73.30
2022-11-09T01:53:15.538Z,73.30
2022-11-09T01:53:25.801Z,73.26
2022-11-09T01:53:36.060Z,73.40
2022-11-09T01:53:46.323Z,73.40
2022-11-09T01:53:56.589Z,73.40
2022-11-09T01:54:06.849Z,73.30
2022-11-09T01:54:17.126Z,73.30
2022-11-09T01:54:27.375Z,73.30
2022-11-09T01:54:37.637Z,73.26
2022-11-09T01:54:47.919Z,73.19
2022-11-09T01:54:58.174Z,73.19
2022-11-09T01:55:08.436Z,73.19
2022-11-09T01:55:18.697Z,73.19
2022-11-09T01:55:28.967Z,73.19
2022-11-09T01:55:39.230Z,73.19
2022-11-09T01:55:49.490Z,73.19
2022-11-09T01:55:59.751Z,73.19
2022-11-09T01:56:10.025Z,73.19
2022-11-09T01:56:20.279Z,73.10
2022-11-09T01:56:30.553Z,73.10
2022-11-09T01:56:40.807Z,73.10
2022-11-09T01:56:51.070Z,73.19
2022-11-09T01:57:01.332Z,73.10
2022-11-09T01:57:11.591Z,73.10
2022-11-09T01:57:21.852Z,73.10
2022-11-09T01:57:32.128Z,73.10
2022-11-09T01:57:42.391Z,73.10
2022-11-09T01:57:52.653Z,72.99
2022-11-09T01:58:02.932Z,72.99
2022-11-09T01:58:13.177Z,72.99
2022-11-09T01:58:23.439Z,72.89
2022-11-09T01:58:33.708Z,72.89
2022-11-09T01:58:43.983Z,72.89
2022-11-09T01:58:54.237Z,72.89
2022-11-09T01:59:04.512Z,72.89
2022-11-09T01:59:14.757Z,72.78
2022-11-09T01:59:25.025Z,72.78
2022-11-09T01:59:35.303Z,72.78
2022-11-09T01:59:45.555Z,72.78
2022-11-09T01:59:55.832Z,72.69
2022-11-09T02:00:06.106Z,72.69
2022-11-09T02:00:16.356Z,72.69
2022-11-09T02:00:26.617Z,72.69
2022-11-09T02:00:36.880Z,72.69
2022-11-09T02:00:47.195Z,72.58
2022-11-09T02:00:57.557Z,72.58
2022-11-09T02:01:07.830Z,72.58
2022-11-09T02:01:18.166Z,72.58
2022-11-09T02:01:28.488Z,72.58
2022-11-09T02:01:38.827Z,72.58
2022-11-09T02:01:49.089Z,72.58
2022-11-09T02:01:59.351Z,72.58
2022-11-09T02:02:09.614Z,72.58
2022-11-09T02:02:19.901Z,72.58
2022-11-09T02:02:30.143Z,72.69
2022-11-09T02:02:40.415Z,72.69
2022-11-09T02:02:50.666Z,72.58
2022-11-09T02:03:00.945Z,72.58
2022-11-09T02:03:11.190Z,72.58
2022-11-09T02:03:21.788Z,72.58
2022-11-09T02:03:31.784Z,72.58
2022-11-09T02:03:42.038Z,72.58
2022-11-09T02:03:52.299Z,72.58
2022-11-09T02:04:02.563Z,72.48
2022-11-09T02:04:12.821Z,72.48
2022-11-09T02:04:23.120Z,72.48
2022-11-09T02:04:33.362Z,72.48
2022-11-09T02:04:43.620Z,72.58
2022-11-09T02:04:53.898Z,72.58
2022-11-09T02:05:04.169Z,72.69
2022-11-09T02:05:14.459Z,72.69
2022-11-09T02:05:24.697Z,72.69
2022-11-09T02:05:34.957Z,72.69
2022-11-09T02:05:45.219Z,72.69
2022-11-09T02:05:55.481Z,72.69
2022-11-09T02:06:05.742Z,72.58
2022-11-09T02:06:15.997Z,72.58
2022-11-09T02:06:26.295Z,72.69
2022-11-09T02:06:36.716Z,72.69
2022-11-09T02:06:47.043Z,72.69
2022-11-09T02:06:57.381Z,72.58
2022-11-09T02:07:07.752Z,72.58
2022-11-09T02:07:18.067Z,72.58
2022-11-09T02:07:28.339Z,72.58
2022-11-09T02:07:38.599Z,72.48
2022-11-09T02:07:48.861Z,72.48
2022-11-09T02:07:59.122Z,72.48
2022-11-09T02:08:09.391Z,72.48
2022-11-09T02:08:19.654Z,72.48
2022-11-09T02:08:29.922Z,72.38
2022-11-09T02:08:40.181Z,72.38
2022-11-09T02:08:50.450Z,72.38
2022-11-09T02:09:00.716Z,72.38
2022-11-09T02:09:10.998Z,72.38
2022-11-09T02:09:21.260Z,72.38
2022-11-09T02:09:31.529Z,72.38
2022-11-09T02:09:41.792Z,72.38
2022-11-09T02:09:52.063Z,72.38
2022-11-09T02:10:02.329Z,72.38
2022-11-09T02:10:12.614Z,72.38
2022-11-09T02:10:22.852Z,72.28
2022-11-09T02:10:33.115Z,72.38
2022-11-09T02:10:43.377Z,72.28
2022-11-09T02:10:53.641Z,72.28
2022-11-09T02:11:03.912Z,72.28
2022-11-09T02:11:14.183Z,72.28
2022-11-09T02:11:24.446Z,72.28
2022-11-09T02:11:34.706Z,72.28
2022-11-09T02:11:44.970Z,72.28
2022-11-09T02:11:55.234Z,72.28
2022-11-09T02:12:05.496Z,72.28
2022-11-09T02:12:15.755Z,72.28